Main page
METAR-TAF:

METAR-TAF

Airports :

Shimla Airport

Shimla, India

latitude: 31-04-54N, longitude: 77-04-05E, elevation: 1546 m

Current weather observation

The report was made 45 minutes ago, at 06:30 UTC
Calm wind
Temperature 23°C
Humidity 89%
Pressure 1008 hPa
Visibility: 5000 m
Few clouds at a height of 3000 ft
Broken clouds at a height of 5000 ft
mist

METAR: VISM 110630Z 00000KT 5000 BR FEW030 BKN050 23/21 Q1008

Time: 12:45 (07:15 UTC)

Forecast

The report was made 2 hours and 15 minutes ago, at 05:00 UTC
Forecast valid from 11 at 06 UTC to 11 at 15 UTC
Wind 2 kt from variable directions
Visibility: 5000 m
Broken clouds at a height of 3000 ft
Overcast at a height of 5000 ft
mist, light rain
Becoming
from 11 at 06 UTC to 11 at 12 UTC
Visibility: 2500 m
Few clouds at a height of 3500 ft, Cumulonimbus.
thunderstorm, rain

TAF: VISM 110500Z 1106/1115 VRB02KT 5000 BR -RA BKN030 OVC050 BECMG 1106/1112 2500 TSRA FEW035CB

Weather observations and forecasts of more than 4000 airports (METAR and TAF reports).

The available stations are represented by yellow and red dots on the map.

Hover mouse over dot to see the name of the station.

Then click to see weather observations and forecasts.

To change the map : click on the green buttons with a black cross to zoom in, on the green button with a dash to zoom out, or on the green arrows for adjacent maps.


METAR-TAF: